sensor_id;sensor_type;location;lat;lon;timestamp;pressure;altitude;pressure_sealevel;temperature;humidity
12475;BME280;6302;42.624;23.334;2022-12-18T00:01:58;93976.47;;;7.29;100.00
12475;BME280;6302;42.624;23.334;2022-12-18T00:04:26;93979.13;;;7.29;100.00
12475;BME280;6302;42.624;23.334;2022-12-18T00:06:53;93989.25;;;7.27;100.00
12475;BME280;6302;42.624;23.334;2022-12-18T00:09:20;93988.41;;;7.19;100.00
12475;BME280;6302;42.624;23.334;2022-12-18T00:11:47;93987.75;;;7.26;100.00
12475;BME280;6302;42.624;23.334;2022-12-18T00:14:16;93991.50;;;7.25;100.00
12475;BME280;6302;42.624;23.334;2022-12-18T00:16:45;93971.25;;;6.83;100.00
12475;BME280;6302;42.624;23.334;2022-12-18T00:19:12;93987.09;;;6.87;100.00
12475;BME280;6302;42.624;23.334;2022-12-18T00:21:39;94000.47;;;6.97;100.00
12475;BME280;6302;42.624;23.334;2022-12-18T00:24:06;94017.16;;;7.05;100.00
12475;BME280;6302;42.624;23.334;2022-12-18T00:26:35;94017.38;;;6.96;100.00
12475;BME280;6302;42.624;23.334;2022-12-18T00:29:04;94014.06;;;6.99;100.00
12475;BME280;6302;42.624;23.334;2022-12-18T00:31:33;94015.34;;;6.86;100.00
12475;BME280;6302;42.624;23.334;2022-12-18T00:34:00;94023.25;;;6.86;100.00
12475;BME280;6302;42.624;23.334;2022-12-18T00:36:29;93933.69;;;6.22;100.00
12475;BME280;6302;42.624;23.334;2022-12-18T00:38:57;94020.44;;;6.76;100.00
12475;BME280;6302;42.624;23.334;2022-12-18T00:41:24;94012.72;;;6.67;100.00
12475;BME280;6302;42.624;23.334;2022-12-18T00:44:10;93989.72;;;6.64;100.00
12475;BME280;6302;42.624;23.334;2022-12-18T00:46:39;94022.69;;;6.77;100.00
12475;BME280;6302;42.624;23.334;2022-12-18T00:49:06;94028.25;;;6.72;100.00
12475;BME280;6302;42.624;23.334;2022-12-18T00:51:32;94033.28;;;6.58;100.00
12475;BME280;6302;42.624;23.334;2022-12-18T00:53:59;93971.50;;;6.14;100.00
12475;BME280;6302;42.624;23.334;2022-12-18T00:56:26;94035.19;;;6.42;100.00
12475;BME280;6302;42.624;23.334;2022-12-18T00:58:53;94026.19;;;6.43;100.00
12475;BME280;6302;42.624;23.334;2022-12-18T01:01:20;94029.94;;;6.42;100.00
12475;BME280;6302;42.624;23.334;2022-12-18T01:03:48;94034.50;;;6.45;100.00
12475;BME280;6302;42.624;23.334;2022-12-18T01:06:15;94040.47;;;6.42;100.00
12475;BME280;6302;42.624;23.334;2022-12-18T01:08:43;94043.09;;;6.42;100.00
12475;BME280;6302;42.624;23.334;2022-12-18T01:11:13;94053.16;;;6.36;100.00
12475;BME280;6302;42.624;23.334;2022-12-18T01:13:41;94052.25;;;6.29;100.00
12475;BME280;6302;42.624;23.334;2022-12-18T01:16:10;94056.06;;;6.31;100.00
12475;BME280;6302;42.624;23.334;2022-12-18T01:18:37;94045.69;;;6.19;100.00
12475;BME280;6302;42.624;23.334;2022-12-18T01:21:08;94048.75;;;6.06;100.00
12475;BME280;6302;42.624;23.334;2022-12-18T01:23:35;94057.06;;;6.08;100.00
12475;BME280;6302;42.624;23.334;2022-12-18T01:26:06;94038.78;;;5.96;100.00
12475;BME280;6302;42.624;23.334;2022-12-18T01:28:33;94059.81;;;5.96;100.00
12475;BME280;6302;42.624;23.334;2022-12-18T01:31:10;94055.84;;;5.86;100.00
12475;BME280;6302;42.624;23.334;2022-12-18T01:33:37;94058.84;;;5.84;100.00
12475;BME280;6302;42.624;23.334;2022-12-18T01:36:04;94057.22;;;5.80;100.00
12475;BME280;6302;42.624;23.334;2022-12-18T01:38:32;94070.72;;;5.63;100.00
12475;BME280;6302;42.624;23.334;2022-12-18T01:41:00;94064.28;;;5.60;100.00
12475;BME280;6302;42.624;23.334;2022-12-18T01:43:46;94066.31;;;5.51;100.00
12475;BME280;6302;42.624;23.334;2022-12-18T01:46:13;94069.44;;;5.57;100.00
12475;BME280;6302;42.624;23.334;2022-12-18T01:48:40;94078.88;;;5.58;100.00
12475;BME280;6302;42.624;23.334;2022-12-18T01:51:09;94072.19;;;5.60;100.00
12475;BME280;6302;42.624;23.334;2022-12-18T01:53:42;94076.00;;;5.47;100.00
12475;BME280;6302;42.624;23.334;2022-12-18T01:56:12;94077.09;;;5.46;100.00
12475;BME280;6302;42.624;23.334;2022-12-18T01:58:47;94084.97;;;5.46;100.00
12475;BME280;6302;42.624;23.334;2022-12-18T02:01:15;94083.38;;;5.42;100.00
12475;BME280;6302;42.624;23.334;2022-12-18T02:03:42;94082.19;;;5.39;100.00
12475;BME280;6302;42.624;23.334;2022-12-18T02:06:13;94084.19;;;5.46;100.00
12475;BME280;6302;42.624;23.334;2022-12-18T02:08:49;94078.09;;;5.42;100.00
12475;BME280;6302;42.624;23.334;2022-12-18T02:11:24;94091.34;;;5.45;100.00
12475;BME280;6302;42.624;23.334;2022-12-18T02:14:05;94075.66;;;5.17;100.00
12475;BME280;6302;42.624;23.334;2022-12-18T02:16:39;94091.50;;;5.37;100.00
12475;BME280;6302;42.624;23.334;2022-12-18T02:19:20;94091.59;;;5.40;100.00
12475;BME280;6302;42.624;23.334;2022-12-18T02:21:59;94100.75;;;5.46;100.00
12475;BME280;6302;42.624;23.334;2022-12-18T02:24:36;94076.16;;;5.23;100.00
12475;BME280;6302;42.624;23.334;2022-12-18T02:27:08;94097.69;;;5.28;100.00
12475;BME280;6302;42.624;23.334;2022-12-18T02:29:39;94104.63;;;5.21;100.00
12475;BME280;6302;42.624;23.334;2022-12-18T02:32:11;94094.56;;;5.23;100.00
12475;BME280;6302;42.624;23.334;2022-12-18T02:34:40;94101.75;;;5.26;100.00
12475;BME280;6302;42.624;23.334;2022-12-18T02:37:11;94105.56;;;5.28;100.00
12475;BME280;6302;42.624;23.334;2022-12-18T02:39:41;94110.50;;;5.30;100.00
12475;BME280;6302;42.624;23.334;2022-12-18T02:42:10;94092.34;;;5.25;100.00
12475;BME280;6302;42.624;23.334;2022-12-18T02:44:42;94111.94;;;5.43;100.00
12475;BME280;6302;42.624;23.334;2022-12-18T02:47:10;94111.09;;;5.39;100.00
12475;BME280;6302;42.624;23.334;2022-12-18T02:49:44;94109.75;;;5.45;100.00
12475;BME280;6302;42.624;23.334;2022-12-18T02:52:24;94075.66;;;5.17;100.00
12475;BME280;6302;42.624;23.334;2022-12-18T02:54:57;94116.19;;;5.32;100.00
12475;BME280;6302;42.624;23.334;2022-12-18T02:57:34;94106.34;;;5.29;100.00
12475;BME280;6302;42.624;23.334;2022-12-18T03:00:04;94109.81;;;5.17;100.00
12475;BME280;6302;42.624;23.334;2022-12-18T03:02:37;94114.47;;;5.24;100.00
12475;BME280;6302;42.624;23.334;2022-12-18T03:05:10;94118.69;;;5.13;100.00
12475;BME280;6302;42.624;23.334;2022-12-18T03:07:42;94118.69;;;5.13;100.00
12475;BME280;6302;42.624;23.334;2022-12-18T03:10:14;94128.97;;;5.18;100.00
12475;BME280;6302;42.624;23.334;2022-12-18T03:12:45;94128.47;;;5.28;100.00
12475;BME280;6302;42.624;23.334;2022-12-18T03:15:17;94119.31;;;5.22;100.00
12475;BME280;6302;42.624;23.334;2022-12-18T03:17:49;94131.59;;;5.18;100.00
12475;BME280;6302;42.624;23.334;2022-12-18T03:20:19;94131.41;;;5.11;100.00
12475;BME280;6302;42.624;23.334;2022-12-18T03:22:51;94133.59;;;5.09;100.00
12475;BME280;6302;42.624;23.334;2022-12-18T03:25:21;94130.66;;;5.10;100.00
12475;BME280;6302;42.624;23.334;2022-12-18T03:27:52;94135.13;;;5.10;100.00
12475;BME280;6302;42.624;23.334;2022-12-18T03:30:21;94143.00;;;5.10;100.00
12475;BME280;6302;42.624;23.334;2022-12-18T03:32:50;94139.97;;;5.08;100.00
12475;BME280;6302;42.624;23.334;2022-12-18T03:35:22;94152.69;;;5.06;100.00
12475;BME280;6302;42.624;23.334;2022-12-18T03:37:49;94155.91;;;5.15;100.00
12475;BME280;6302;42.624;23.334;2022-12-18T03:40:16;94140.38;;;5.10;100.00
12475;BME280;6302;42.624;23.334;2022-12-18T03:42:46;94123.22;;;4.85;100.00
12475;BME280;6302;42.624;23.334;2022-12-18T03:45:20;94164.50;;;5.00;100.00
12475;BME280;6302;42.624;23.334;2022-12-18T03:47:58;94167.91;;;5.00;100.00
12475;BME280;6302;42.624;23.334;2022-12-18T03:50:34;94163.56;;;4.92;100.00
12475;BME280;6302;42.624;23.334;2022-12-18T03:53:11;94169.19;;;4.79;100.00
12475;BME280;6302;42.624;23.334;2022-12-18T03:55:41;94168.56;;;4.70;100.00
12475;BME280;6302;42.624;23.334;2022-12-18T03:58:13;94171.22;;;4.57;100.00
12475;BME280;6302;42.624;23.334;2022-12-18T04:00:44;94172.75;;;4.58;100.00
12475;BME280;6302;42.624;23.334;2022-12-18T04:03:13;94170.13;;;4.58;100.00
12475;BME280;6302;42.624;23.334;2022-12-18T04:05:42;94175.94;;;4.64;100.00
12475;BME280;6302;42.624;23.334;2022-12-18T04:08:09;94187.09;;;4.61;100.00
12475;BME280;6302;42.624;23.334;2022-12-18T04:10:36;94189.81;;;4.52;100.00
12475;BME280;6302;42.624;23.334;2022-12-18T04:13:03;94185.34;;;4.53;100.00
12475;BME280;6302;42.624;23.334;2022-12-18T04:15:31;94188.19;;;4.48;100.00
12475;BME280;6302;42.624;23.334;2022-12-18T04:18:02;94183.75;;;4.36;100.00
12475;BME280;6302;42.624;23.334;2022-12-18T04:20:29;94193.00;;;4.46;100.00
12475;BME280;6302;42.624;23.334;2022-12-18T04:22:56;94201.47;;;4.39;100.00
12475;BME280;6302;42.624;23.334;2022-12-18T04:25:23;94203.63;;;4.37;100.00
12475;BME280;6302;42.624;23.334;2022-12-18T04:27:50;94202.56;;;4.26;100.00
12475;BME280;6302;42.624;23.334;2022-12-18T04:30:17;94206.69;;;4.27;100.00
12475;BME280;6302;42.624;23.334;2022-12-18T04:32:44;94194.47;;;4.19;100.00
12475;BME280;6302;42.624;23.334;2022-12-18T04:35:12;94210.22;;;4.19;100.00
12475;BME280;6302;42.624;23.334;2022-12-18T04:37:38;94222.56;;;4.19;100.00
12475;BME280;6302;42.624;23.334;2022-12-18T04:40:06;94222.13;;;4.17;100.00
12475;BME280;6302;42.624;23.334;2022-12-18T04:42:33;94227.16;;;4.22;100.00
12475;BME280;6302;42.624;23.334;2022-12-18T04:45:00;94235.13;;;4.13;100.00
12475;BME280;6302;42.624;23.334;2022-12-18T04:47:27;94210.88;;;3.92;100.00
12475;BME280;6302;42.624;23.334;2022-12-18T04:49:54;94243.75;;;4.14;100.00
12475;BME280;6302;42.624;23.334;2022-12-18T04:52:22;94238.72;;;4.09;100.00
12475;BME280;6302;42.624;23.334;2022-12-18T04:54:48;94241.03;;;4.10;100.00
12475;BME280;6302;42.624;23.334;2022-12-18T04:57:15;94238.84;;;4.12;100.00
12475;BME280;6302;42.624;23.334;2022-12-18T04:59:43;94244.75;;;4.09;100.00
12475;BME280;6302;42.624;23.334;2022-12-18T05:02:10;94245.63;;;4.13;100.00
12475;BME280;6302;42.624;23.334;2022-12-18T05:04:36;94244.31;;;4.07;100.00
12475;BME280;6302;42.624;23.334;2022-12-18T05:07:03;94246.47;;;4.05;100.00
12475;BME280;6302;42.624;23.334;2022-12-18T05:09:32;94258.94;;;4.08;100.00
12475;BME280;6302;42.624;23.334;2022-12-18T05:11:58;94263.31;;;4.04;100.00
12475;BME280;6302;42.624;23.334;2022-12-18T05:14:25;94257.88;;;4.09;100.00
12475;BME280;6302;42.624;23.334;2022-12-18T05:16:52;94258.84;;;4.05;100.00
12475;BME280;6302;42.624;23.334;2022-12-18T05:19:19;94257.44;;;4.07;100.00
12475;BME280;6302;42.624;23.334;2022-12-18T05:21:46;94276.44;;;4.16;100.00
12475;BME280;6302;42.624;23.334;2022-12-18T05:24:13;94277.22;;;4.17;100.00
12475;BME280;6302;42.624;23.334;2022-12-18T05:26:41;94278.00;;;4.17;100.00
12475;BME280;6302;42.624;23.334;2022-12-18T05:29:08;94281.56;;;4.25;100.00
12475;BME280;6302;42.624;23.334;2022-12-18T05:31:37;94291.00;;;4.26;100.00
12475;BME280;6302;42.624;23.334;2022-12-18T05:34:04;94299.94;;;4.25;100.00
12475;BME280;6302;42.624;23.334;2022-12-18T05:36:31;94301.81;;;4.36;100.00
12475;BME280;6302;42.624;23.334;2022-12-18T05:38:58;94306.44;;;4.39;100.00
12475;BME280;6302;42.624;23.334;2022-12-18T05:41:25;94308.50;;;4.34;100.00
12475;BME280;6302;42.624;23.334;2022-12-18T05:43:53;94304.22;;;4.29;100.00
12475;BME280;6302;42.624;23.334;2022-12-18T05:46:20;94313.28;;;4.20;100.00
12475;BME280;6302;42.624;23.334;2022-12-18T05:48:47;94314.47;;;4.10;100.00
12475;BME280;6302;42.624;23.334;2022-12-18T05:51:16;94307.69;;;4.09;100.00
12475;BME280;6302;42.624;23.334;2022-12-18T05:53:44;94300.47;;;3.94;100.00
12475;BME280;6302;42.624;23.334;2022-12-18T05:56:13;94312.81;;;4.06;100.00
12475;BME280;6302;42.624;23.334;2022-12-18T05:58:41;94320.81;;;4.09;100.00
12475;BME280;6302;42.624;23.334;2022-12-18T06:01:11;94293.25;;;3.91;100.00
12475;BME280;6302;42.624;23.334;2022-12-18T06:03:41;94327.69;;;4.02;100.00
12475;BME280;6302;42.624;23.334;2022-12-18T06:06:15;94320.81;;;3.97;100.00
12475;BME280;6302;42.624;23.334;2022-12-18T06:08:42;94322.53;;;3.93;100.00
12475;BME280;6302;42.624;23.334;2022-12-18T06:11:09;94328.44;;;3.90;100.00
12475;BME280;6302;42.624;23.334;2022-12-18T06:13:37;94327.97;;;3.88;100.00
12475;BME280;6302;42.624;23.334;2022-12-18T06:16:05;94331.13;;;3.81;100.00
12475;BME280;6302;42.624;23.334;2022-12-18T06:18:33;94336.53;;;3.97;100.00
12475;BME280;6302;42.624;23.334;2022-12-18T06:21:00;94314.84;;;3.88;100.00
12475;BME280;6302;42.624;23.334;2022-12-18T06:23:27;94322.41;;;3.89;100.00
12475;BME280;6302;42.624;23.334;2022-12-18T06:25:54;94328.94;;;3.83;100.00
12475;BME280;6302;42.624;23.334;2022-12-18T06:28:21;94336.75;;;3.92;100.00
12475;BME280;6302;42.624;23.334;2022-12-18T06:30:48;94337.03;;;3.90;100.00
12475;BME280;6302;42.624;23.334;2022-12-18T06:33:16;94341.22;;;3.91;100.00
12475;BME280;6302;42.624;23.334;2022-12-18T06:35:44;94353.34;;;3.96;100.00
12475;BME280;6302;42.624;23.334;2022-12-18T06:38:11;94344.38;;;3.85;100.00
12475;BME280;6302;42.624;23.334;2022-12-18T06:40:38;94352.91;;;3.94;100.00
12475;BME280;6302;42.624;23.334;2022-12-18T06:43:05;94359.47;;;4.00;100.00
12475;BME280;6302;42.624;23.334;2022-12-18T06:45:33;94364.28;;;3.98;100.00
12475;BME280;6302;42.624;23.334;2022-12-18T06:48:00;94355.19;;;3.95;100.00
12475;BME280;6302;42.624;23.334;2022-12-18T06:50:27;94373.88;;;3.94;100.00
12475;BME280;6302;42.624;23.334;2022-12-18T06:52:55;94350.94;;;3.91;100.00
12475;BME280;6302;42.624;23.334;2022-12-18T06:55:22;94371.06;;;3.99;100.00
12475;BME280;6302;42.624;23.334;2022-12-18T06:57:48;94354.09;;;3.84;100.00
12475;BME280;6302;42.624;23.334;2022-12-18T07:00:16;94382.44;;;4.03;100.00
12475;BME280;6302;42.624;23.334;2022-12-18T07:02:43;94378.72;;;4.04;100.00
12475;BME280;6302;42.624;23.334;2022-12-18T07:05:09;94378.72;;;4.04;100.00
12475;BME280;6302;42.624;23.334;2022-12-18T07:07:36;94395.97;;;4.05;100.00
12475;BME280;6302;42.624;23.334;2022-12-18T07:10:07;94396.75;;;4.06;100.00
12475;BME280;6302;42.624;23.334;2022-12-18T07:12:34;94386.81;;;3.99;100.00
12475;BME280;6302;42.624;23.334;2022-12-18T07:15:01;94386.03;;;3.99;100.00
12475;BME280;6302;42.624;23.334;2022-12-18T07:17:28;94398.56;;;3.93;100.00
12475;BME280;6302;42.624;23.334;2022-12-18T07:19:54;94401.13;;;4.02;100.00
12475;BME280;6302;42.624;23.334;2022-12-18T07:22:21;94393.56;;;4.00;100.00
12475;BME280;6302;42.624;23.334;2022-12-18T07:24:48;94386.56;;;3.92;100.00
12475;BME280;6302;42.624;23.334;2022-12-18T07:27:17;94397.72;;;4.01;100.00
12475;BME280;6302;42.624;23.334;2022-12-18T07:29:44;94408.88;;;3.98;100.00
12475;BME280;6302;42.624;23.334;2022-12-18T07:32:10;94401.44;;;4.00;100.00
12475;BME280;6302;42.624;23.334;2022-12-18T07:34:37;94409.31;;;4.00;100.00
12475;BME280;6302;42.624;23.334;2022-12-18T07:37:04;94407.16;;;4.02;100.00
12475;BME280;6302;42.624;23.334;2022-12-18T07:39:31;94403.84;;;4.05;100.00
12475;BME280;6302;42.624;23.334;2022-12-18T07:41:58;94381.97;;;3.89;100.00
12475;BME280;6302;42.624;23.334;2022-12-18T07:44:43;94423.56;;;4.11;100.00
12475;BME280;6302;42.624;23.334;2022-12-18T07:47:10;94425.72;;;3.97;100.00
12475;BME280;6302;42.624;23.334;2022-12-18T07:49:37;94426.06;;;4.08;100.00
12475;BME280;6302;42.624;23.334;2022-12-18T07:52:04;94420.38;;;4.06;100.00
12475;BME280;6302;42.624;23.334;2022-12-18T07:54:31;94413.59;;;4.05;100.00
12475;BME280;6302;42.624;23.334;2022-12-18T07:56:57;94427.22;;;3.98;100.00
12475;BME280;6302;42.624;23.334;2022-12-18T07:59:24;94433.63;;;4.09;100.00
12475;BME280;6302;42.624;23.334;2022-12-18T08:01:53;94429.78;;;4.07;100.00
12475;BME280;6302;42.624;23.334;2022-12-18T08:04:19;94435.13;;;4.10;100.00
12475;BME280;6302;42.624;23.334;2022-12-18T08:06:46;94410.94;;;3.92;100.00
12475;BME280;6302;42.624;23.334;2022-12-18T08:09:13;94458.78;;;4.22;100.00
12475;BME280;6302;42.624;23.334;2022-12-18T08:11:40;94455.47;;;4.13;100.00
12475;BME280;6302;42.624;23.334;2022-12-18T08:14:07;94426.16;;;3.99;100.00
12475;BME280;6302;42.624;23.334;2022-12-18T08:16:35;94460.75;;;4.25;100.00
12475;BME280;6302;42.624;23.334;2022-12-18T08:19:07;94476.59;;;4.17;100.00
12475;BME280;6302;42.624;23.334;2022-12-18T08:21:33;94472.63;;;4.11;100.00
12475;BME280;6302;42.624;23.334;2022-12-18T08:24:01;94457.03;;;3.93;100.00
12475;BME280;6302;42.624;23.334;2022-12-18T08:26:30;94480.38;;;4.07;100.00
12475;BME280;6302;42.624;23.334;2022-12-18T08:28:58;94466.69;;;4.02;100.00
12475;BME280;6302;42.624;23.334;2022-12-18T08:31:27;94463.88;;;4.07;100.00
12475;BME280;6302;42.624;23.334;2022-12-18T08:33:54;94479.03;;;4.01;100.00
12475;BME280;6302;42.624;23.334;2022-12-18T08:36:23;94487.88;;;4.17;100.00
12475;BME280;6302;42.624;23.334;2022-12-18T08:38:50;94481.47;;;4.06;100.00
12475;BME280;6302;42.624;23.334;2022-12-18T08:41:17;94491.31;;;4.09;100.00
12475;BME280;6302;42.624;23.334;2022-12-18T08:43:45;94484.28;;;4.01;100.00
12475;BME280;6302;42.624;23.334;2022-12-18T08:46:33;94491.31;;;4.09;100.00
12475;BME280;6302;42.624;23.334;2022-12-18T08:49:01;94499.06;;;4.06;100.00
12475;BME280;6302;42.624;23.334;2022-12-18T08:51:29;94504.25;;;4.14;100.00
12475;BME280;6302;42.624;23.334;2022-12-18T08:53:56;94484.53;;;4.08;100.00
12475;BME280;6302;42.624;23.334;2022-12-18T08:56:25;94473.03;;;4.01;100.00
12475;BME280;6302;42.624;23.334;2022-12-18T08:58:55;94491.69;;;4.20;100.00
12475;BME280;6302;42.624;23.334;2022-12-18T09:01:22;94488.75;;;4.21;100.00
12475;BME280;6302;42.624;23.334;2022-12-18T09:03:50;94489.13;;;4.11;100.00
12475;BME280;6302;42.624;23.334;2022-12-18T09:06:20;94490.69;;;4.12;100.00
12475;BME280;6302;42.624;23.334;2022-12-18T09:08:49;94489.34;;;4.06;100.00
12475;BME280;6302;42.624;23.334;2022-12-18T09:11:20;94488.44;;;4.02;100.00
12475;BME280;6302;42.624;23.334;2022-12-18T09:13:47;94482.75;;;4.00;100.00
12475;BME280;6302;42.624;23.334;2022-12-18T09:16:14;94484.28;;;4.01;100.00
12475;BME280;6302;42.624;23.334;2022-12-18T09:18:41;94483.94;;;4.03;100.00
12475;BME280;6302;42.624;23.334;2022-12-18T09:21:09;94465.34;;;3.95;100.00
12475;BME280;6302;42.624;23.334;2022-12-18T09:23:36;94481.91;;;4.08;100.00
12475;BME280;6302;42.624;23.334;2022-12-18T09:26:06;94486.91;;;4.01;100.00
12475;BME280;6302;42.624;23.334;2022-12-18T09:28:33;94476.59;;;3.96;100.00
12475;BME280;6302;42.624;23.334;2022-12-18T09:31:04;94481.28;;;4.11;100.00
12475;BME280;6302;42.624;23.334;2022-12-18T09:33:33;94468.34;;;4.06;100.00
12475;BME280;6302;42.624;23.334;2022-12-18T09:36:01;94482.41;;;4.22;100.00
12475;BME280;6302;42.624;23.334;2022-12-18T09:38:29;94486.19;;;4.13;100.00
12475;BME280;6302;42.624;23.334;2022-12-18T09:40:59;94463.94;;;3.98;100.00
12475;BME280;6302;42.624;23.334;2022-12-18T09:43:29;94492.25;;;4.25;100.00
12475;BME280;6302;42.624;23.334;2022-12-18T09:46:01;94493.94;;;4.09;100.00
12475;BME280;6302;42.624;23.334;2022-12-18T09:48:31;94507.94;;;4.13;100.00
12475;BME280;6302;42.624;23.334;2022-12-18T09:51:04;94496.56;;;4.09;100.00
12475;BME280;6302;42.624;23.334;2022-12-18T09:53:36;94490.94;;;4.19;100.00
12475;BME280;6302;42.624;23.334;2022-12-18T09:56:05;94467.53;;;4.14;100.00
12475;BME280;6302;42.624;23.334;2022-12-18T09:58:37;94474.53;;;4.22;100.00
12475;BME280;6302;42.624;23.334;2022-12-18T10:01:09;94497.31;;;4.30;100.00
12475;BME280;6302;42.624;23.334;2022-12-18T10:03:36;94483.75;;;4.28;100.00
12475;BME280;6302;42.624;23.334;2022-12-18T10:06:08;94481.16;;;4.40;100.00
12475;BME280;6302;42.624;23.334;2022-12-18T10:08:44;94485.78;;;4.55;100.00
12475;BME280;6302;42.624;23.334;2022-12-18T10:11:25;94487.03;;;4.37;100.00
12475;BME280;6302;42.624;23.334;2022-12-18T10:14:02;94440.38;;;4.10;100.00
12475;BME280;6302;42.624;23.334;2022-12-18T10:16:36;94497.06;;;4.56;100.00
12475;BME280;6302;42.624;23.334;2022-12-18T10:19:15;94476.09;;;4.35;100.00
12475;BME280;6302;42.624;23.334;2022-12-18T10:21:50;94501.75;;;4.50;100.00
12475;BME280;6302;42.624;23.334;2022-12-18T10:24:24;94495.16;;;4.44;100.00
12475;BME280;6302;42.624;23.334;2022-12-18T10:26:55;94495.38;;;4.39;100.00
12475;BME280;6302;42.624;23.334;2022-12-18T10:29:28;94493.19;;;4.41;100.00
12475;BME280;6302;42.624;23.334;2022-12-18T10:31:55;94494.47;;;4.35;100.00
12475;BME280;6302;42.624;23.334;2022-12-18T10:34:23;94495.13;;;4.32;100.00
12475;BME280;6302;42.624;23.334;2022-12-18T10:36:50;94470.59;;;4.16;100.00
12475;BME280;6302;42.624;23.334;2022-12-18T10:39:18;94498.72;;;4.28;100.00
12475;BME280;6302;42.624;23.334;2022-12-18T10:41:47;94503.72;;;4.21;100.00
12475;BME280;6302;42.624;23.334;2022-12-18T10:44:17;94494.31;;;4.20;100.00
12475;BME280;6302;42.624;23.334;2022-12-18T10:46:47;94463.78;;;4.15;100.00
12475;BME280;6302;42.624;23.334;2022-12-18T10:49:20;94490.16;;;4.19;100.00
12475;BME280;6302;42.624;23.334;2022-12-18T10:51:49;94490.25;;;4.22;100.00
12475;BME280;6302;42.624;23.334;2022-12-18T10:54:18;94491.91;;;4.15;100.00
12475;BME280;6302;42.624;23.334;2022-12-18T10:56:46;94489.00;;;4.08;100.00
12475;BME280;6302;42.624;23.334;2022-12-18T10:59:15;94491.97;;;4.06;100.00
12475;BME280;6302;42.624;23.334;2022-12-18T11:01:52;94458.44;;;3.91;100.00
12475;BME280;6302;42.624;23.334;2022-12-18T11:04:21;94486.56;;;4.03;100.00
12475;BME280;6302;42.624;23.334;2022-12-18T11:06:57;94490.41;;;4.05;100.00
12475;BME280;6302;42.624;23.334;2022-12-18T11:09:26;94495.66;;;4.05;100.00
12475;BME280;6302;42.624;23.334;2022-12-18T11:11:55;94490.16;;;3.98;100.00
12475;BME280;6302;42.624;23.334;2022-12-18T11:14:26;94502.44;;;3.85;100.00
12475;BME280;6302;42.624;23.334;2022-12-18T11:16:55;94484.81;;;3.74;100.00
12475;BME280;6302;42.624;23.334;2022-12-18T11:19:30;94492.47;;;3.79;100.00
12475;BME280;6302;42.624;23.334;2022-12-18T11:21:58;94497.09;;;3.82;100.00
12475;BME280;6302;42.624;23.334;2022-12-18T11:24:29;94496.91;;;3.87;100.00
12475;BME280;6302;42.624;23.334;2022-12-18T11:26:58;94497.94;;;3.94;100.00
12475;BME280;6302;42.624;23.334;2022-12-18T11:29:32;94499.63;;;3.90;100.00
12475;BME280;6302;42.624;23.334;2022-12-18T11:32:24;94499.28;;;3.80;100.00
12475;BME280;6302;42.624;23.334;2022-12-18T11:34:56;94495.31;;;3.94;100.00
12475;BME280;6302;42.624;23.334;2022-12-18T11:37:25;94481.34;;;3.82;100.00
12475;BME280;6302;42.624;23.334;2022-12-18T11:39:57;94499.91;;;3.77;100.00
12475;BME280;6302;42.624;23.334;2022-12-18T11:42:32;94490.56;;;3.88;100.00
12475;BME280;6302;42.624;23.334;2022-12-18T11:45:08;94496.84;;;3.75;100.00
12475;BME280;6302;42.624;23.334;2022-12-18T11:47:52;94501.75;;;3.76;100.00
12475;BME280;6302;42.624;23.334;2022-12-18T11:50:24;94505.00;;;3.73;100.00
12475;BME280;6302;42.624;23.334;2022-12-18T11:52:52;94508.59;;;3.69;100.00
12475;BME280;6302;42.624;23.334;2022-12-18T11:55:27;94507.31;;;3.75;100.00
12475;BME280;6302;42.624;23.334;2022-12-18T11:58:02;94511.00;;;3.74;100.00
12475;BME280;6302;42.624;23.334;2022-12-18T12:00:36;94490.41;;;3.64;100.00
12475;BME280;6302;42.624;23.334;2022-12-18T12:03:22;94495.34;;;3.86;100.00
12475;BME280;6302;42.624;23.334;2022-12-18T12:06:00;94501.00;;;3.97;100.00
12475;BME280;6302;42.624;23.334;2022-12-18T12:08:42;94500.66;;;3.98;100.00
12475;BME280;6302;42.624;23.334;2022-12-18T12:11:17;94502.31;;;4.03;100.00
12475;BME280;6302;42.624;23.334;2022-12-18T12:14:08;94501.19;;;3.91;100.00
12475;BME280;6302;42.624;23.334;2022-12-18T12:16:43;94498.03;;;3.98;100.00
12475;BME280;6302;42.624;23.334;2022-12-18T12:19:24;94503.41;;;4.02;100.00
12475;BME280;6302;42.624;23.334;2022-12-18T12:22:00;94494.78;;;4.01;100.00
12475;BME280;6302;42.624;23.334;2022-12-18T12:24:39;94489.91;;;3.91;100.00
12475;BME280;6302;42.624;23.334;2022-12-18T12:27:16;94500.47;;;4.03;100.00
12475;BME280;6302;42.624;23.334;2022-12-18T12:29:54;94499.97;;;4.10;100.00
12475;BME280;6302;42.624;23.334;2022-12-18T12:32:35;94500.84;;;4.14;100.00
12475;BME280;6302;42.624;23.334;2022-12-18T12:35:16;94496.88;;;4.08;100.00
12475;BME280;6302;42.624;23.334;2022-12-18T12:37:54;94506.88;;;4.14;100.00
12475;BME280;6302;42.624;23.334;2022-12-18T12:40:28;94512.75;;;4.11;100.00
12475;BME280;6302;42.624;23.334;2022-12-18T12:42:59;94507.06;;;4.09;100.00
12475;BME280;6302;42.624;23.334;2022-12-18T12:45:42;94511.41;;;4.05;100.00
12475;BME280;6302;42.624;23.334;2022-12-18T12:48:17;94514.72;;;3.93;100.00
12475;BME280;6302;42.624;23.334;2022-12-18T12:50:47;94514.72;;;3.93;100.00
12475;BME280;6302;42.624;23.334;2022-12-18T12:53:22;94517.44;;;3.85;100.00
12475;BME280;6302;42.624;23.334;2022-12-18T12:55:50;94509.38;;;3.90;100.00
12475;BME280;6302;42.624;23.334;2022-12-18T12:58:25;94511.91;;;3.99;100.00
12475;BME280;6302;42.624;23.334;2022-12-18T13:00:56;94517.03;;;4.16;100.00
12475;BME280;6302;42.624;23.334;2022-12-18T13:03:34;94525.63;;;4.04;100.00
12475;BME280;6302;42.624;23.334;2022-12-18T13:06:09;94531.38;;;4.18;100.00
12475;BME280;6302;42.624;23.334;2022-12-18T13:08:53;94533.34;;;4.21;100.00
12475;BME280;6302;42.624;23.334;2022-12-18T13:11:30;94535.97;;;4.21;100.00
12475;BME280;6302;42.624;23.334;2022-12-18T13:14:21;94542.00;;;4.22;100.00
12475;BME280;6302;42.624;23.334;2022-12-18T13:16:49;94544.44;;;4.27;100.00